Time;durP1;ratioP1;P1;durP2;ratioP2;P2;SDS_P1;SDS_P2;PMS_P1;PMS_P2;Temp;Humidity;BMP_temperature;BMP_pressure;BME280_temperature;BME280_humidity;BME280_pressure;Samples;Min_cycle;Max_cycle;Signal;HPM_P1;HPM_P2
2023/02/01 00:01:45;;;;;;;122.53;7.22;;;;;;;8.38;100.00;98295.22;5035833;28;20079;-56
2023/02/01 00:04:12;;;;;;;122.00;10.15;;;;;;;8.93;100.00;98297.50;5035683;28;20028;-55
2023/02/01 00:06:37;;;;;;;128.60;7.28;;;;;;;8.97;100.00;98300.97;5034461;28;20029;-56
2023/02/01 00:09:03;;;;;;;126.85;10.40;;;;;;;9.40;100.00;98292.63;5035786;28;20259;-55
2023/02/01 00:11:29;;;;;;;119.25;6.63;;;;;;;8.50;100.00;98294.47;5036143;28;20758;-55
2023/02/01 00:13:54;;;;;;;136.15;9.38;;;;;;;9.16;100.00;98296.78;5035023;28;20764;-54
2023/02/01 00:16:28;;;;;;;116.82;10.27;;;;;;;9.08;100.00;98295.88;5034631;28;20126;-56
2023/02/01 00:19:10;;;;;;;150.23;7.90;;;;;;;7.59;100.00;98290.84;5036574;28;20398;-55
2023/02/01 00:21:36;;;;;;;130.35;9.50;;;;;;;8.33;100.00;98292.56;5035263;28;20068;-55
2023/02/01 00:24:02;;;;;;;150.38;10.65;;;;;;;8.26;100.00;98290.75;5035655;28;20558;-54
2023/02/01 00:26:34;;;;;;;134.82;9.40;;;;;;;8.18;100.00;98294.16;5035648;28;20127;-56
2023/02/01 00:29:01;;;;;;;154.07;12.32;;;;;;;7.86;100.00;98294.63;5036050;28;20467;-55
2023/02/01 00:31:27;;;;;;;124.07;8.65;;;;;;;9.13;100.00;98286.38;5034850;28;20040;-54
2023/02/01 00:33:52;;;;;;;113.90;7.00;;;;;;;8.28;100.00;98286.47;5012553;28;20057;-55
2023/02/01 00:36:18;;;;;;;130.75;10.32;;;;;;;8.77;100.00;98282.66;5035806;28;20044;-55
2023/02/01 00:38:43;;;;;;;121.65;9.75;;;;;;;8.32;100.00;98285.66;5036188;28;20588;-54
2023/02/01 00:41:13;;;;;;;142.18;9.95;;;;;;;9.20;100.00;98282.97;5034703;28;20037;-54
2023/02/01 00:43:39;;;;;;;141.60;10.02;;;;;;;9.48;100.00;98277.97;5034823;28;20037;-57
2023/02/01 00:46:05;;;;;;;134.30;10.07;;;;;;;10.49;100.00;98276.63;5034336;28;20052;-56
2023/02/01 00:48:31;;;;;;;131.02;11.05;;;;;;;9.86;100.00;98283.34;5035863;28;20021;-55
2023/02/01 00:51:05;;;;;;;122.70;11.75;;;;;;;9.80;100.00;98284.16;5012485;28;20102;-56
2023/02/01 00:53:30;;;;;;;151.05;9.45;;;;;;;9.43;100.00;98273.63;5035733;28;20032;-57
2023/02/01 00:55:56;;;;;;;129.43;9.57;;;;;;;9.62;100.00;98278.03;5034407;28;20040;-56
2023/02/01 00:58:25;;;;;;;114.82;9.23;;;;;;;9.11;100.00;98290.69;5035517;28;20037;-55
2023/02/01 01:01:00;;;;;;;112.10;6.88;;;;;;;8.34;100.00;98286.53;5035457;28;20043;-55
2023/02/01 01:03:26;;;;;;;126.35;8.80;;;;;;;9.72;100.00;98278.06;5035698;28;20040;-57
2023/02/01 01:05:56;;;;;;;133.13;7.47;;;;;;;9.18;100.00;98282.13;5033317;28;20059;-54
2023/02/01 01:08:22;;;;;;;123.85;10.13;;;;;;;9.68;100.00;98271.16;5035241;28;20054;-56
2023/02/01 01:10:49;;;;;;;153.57;9.55;;;;;;;8.89;100.00;98272.38;5034447;28;20025;-55
2023/02/01 01:13:14;;;;;;;133.10;8.20;;;;;;;9.04;100.00;98269.03;5032651;28;20622;-54
2023/02/01 01:15:40;;;;;;;136.93;10.85;;;;;;;8.87;100.00;98271.47;5033759;28;20024;-56
2023/02/01 01:18:06;;;;;;;116.82;9.30;;;;;;;8.45;100.00;98269.38;5035325;28;20031;-54
2023/02/01 01:20:34;;;;;;;126.40;7.88;;;;;;;8.50;100.00;98272.00;5035287;28;20548;-54
2023/02/01 01:23:00;;;;;;;158.30;11.20;;;;;;;9.57;100.00;98258.13;5036302;28;20043;-54
2023/02/01 01:25:26;;;;;;;128.95;10.45;;;;;;;9.61;100.00;98263.31;5018686;28;20025;-55
2023/02/01 01:27:51;;;;;;;104.82;8.35;;;;;;;9.92;100.00;98257.41;5035059;28;20021;-54
2023/02/01 01:30:17;;;;;;;147.18;9.38;;;;;;;8.96;100.00;98273.28;5034170;28;20031;-55
2023/02/01 01:32:43;;;;;;;88.88;8.18;;;;;;;9.10;100.00;98269.06;5017201;28;20033;-56
2023/02/01 01:35:08;;;;;;;133.70;10.45;;;;;;;9.87;100.00;98262.56;5035121;28;20033;-56
2023/02/01 01:37:35;;;;;;;152.25;9.15;;;;;;;9.88;100.00;98264.28;5033911;28;20021;-58
2023/02/01 01:40:00;;;;;;;127.22;11.13;;;;;;;9.02;100.00;98272.47;5034776;28;20025;-56
2023/02/01 01:42:26;;;;;;;144.20;11.13;;;;;;;8.28;100.00;98269.19;5018796;28;20041;-57
2023/02/01 01:45:05;;;;;;;127.63;10.15;;;;;;;8.64;100.00;98261.78;5035196;28;20112;-56
2023/02/01 01:47:37;;;;;;;149.98;11.80;;;;;;;8.84;100.00;98269.75;5033791;28;20033;-54
2023/02/01 01:50:05;;;;;;;110.88;7.45;;;;;;;7.58;100.00;98260.63;5035658;28;20025;-54
2023/02/01 01:52:31;;;;;;;137.38;9.57;;;;;;;8.76;100.00;98266.22;5035400;28;20025;-55
2023/02/01 01:54:57;;;;;;;130.68;10.32;;;;;;;7.80;100.00;98268.69;5035337;28;20027;-54
2023/02/01 01:57:30;;;;;;;113.68;7.47;;;;;;;8.71;100.00;98266.19;5034427;28;20037;-54
2023/02/01 02:00:03;;;;;;;127.43;8.57;;;;;;;8.49;100.00;98264.22;5034428;28;20029;-56
2023/02/01 02:02:29;;;;;;;118.70;8.95;;;;;;;7.91;100.00;98258.44;5033512;28;20045;-55
2023/02/01 02:04:54;;;;;;;143.13;12.85;;;;;;;8.69;100.00;98247.13;5033914;28;20021;-55
2023/02/01 02:07:30;;;;;;;118.68;10.75;;;;;;;10.45;100.00;98244.56;5034326;28;20039;-58
2023/02/01 02:09:56;;;;;;;144.48;9.90;;;;;;;8.32;100.00;98252.81;5036319;28;20025;-53
2023/02/01 02:12:21;;;;;;;128.50;11.15;;;;;;;8.54;100.00;98254.81;5038341;28;20565;-56
2023/02/01 02:14:48;;;;;;;113.22;10.30;;;;;;;8.58;100.00;98257.41;5021196;28;20029;-57
2023/02/01 02:17:36;;;;;;;144.48;12.05;;;;;;;9.43;100.00;98252.84;5037971;28;20040;-57
2023/02/01 02:20:38;;;;;;;155.50;10.65;;;;;;;8.97;100.00;98259.47;5037281;28;20031;-54
2023/02/01 02:23:49;;;;;;;158.32;11.18;;;;;;;9.60;100.00;98239.94;5037873;28;20041;-53
2023/02/01 02:26:24;;;;;;;138.55;8.80;;;;;;;8.16;100.00;98240.56;5035887;28;20068;-56
2023/02/01 02:29:32;;;;;;;111.45;9.73;;;;;;;8.98;100.00;98236.13;5037534;28;20029;-55
2023/02/01 02:32:27;;;;;;;115.60;8.18;;;;;;;7.60;100.00;98242.50;5037018;28;20071;-53
2023/02/01 02:35:23;;;;;;;116.97;10.43;;;;;;;8.09;100.00;98237.03;5038825;28;20780;-54
2023/02/01 02:37:54;;;;;;;115.03;9.30;;;;;;;8.42;100.00;98233.06;5037777;28;20739;-54
2023/02/01 02:40:32;;;;;;;147.02;8.38;;;;;;;7.63;100.00;98221.84;5037537;28;20031;-54
2023/02/01 02:48:48;;;;;;;157.05;10.68;;;;;;;7.41;100.00;98227.63;5037483;28;20565;-54
2023/02/01 03:06:01;;;;;;;144.45;9.32;;;;;;;9.25;100.00;98211.19;5037068;28;20044;-55
2023/02/01 03:08:28;;;;;;;110.13;7.82;;;;;;;8.73;100.00;98209.16;5037752;28;20036;-55
2023/02/01 03:11:05;;;;;;;132.75;9.70;;;;;;;8.51;100.00;98203.75;5036248;28;20044;-56
2023/02/01 03:13:44;;;;;;;127.03;8.52;;;;;;;8.46;100.00;98203.72;5037872;28;20028;-55
2023/02/01 03:16:15;;;;;;;173.50;11.88;;;;;;;8.09;100.00;98203.34;5037181;28;20057;-57
2023/02/01 03:19:05;;;;;;;130.45;10.52;;;;;;;7.71;100.00;98203.84;5034439;28;20027;-56
2023/02/01 03:22:01;;;;;;;136.18;10.43;;;;;;;8.68;100.00;98203.03;5035838;28;20064;-57
2023/02/01 03:24:35;;;;;;;142.15;11.40;;;;;;;7.67;100.00;98196.03;5037275;28;20099;-55
2023/02/01 03:27:07;;;;;;;110.00;8.13;;;;;;;7.63;100.00;98185.59;5034022;28;20083;-55
2023/02/01 03:29:45;;;;;;;159.88;9.85;;;;;;;7.01;100.00;98190.84;5036343;28;20024;-55
2023/02/01 03:32:10;;;;;;;160.48;14.75;;;;;;;7.27;100.00;98192.91;5034680;28;20041;-58
2023/02/01 03:34:36;;;;;;;145.05;11.63;;;;;;;7.59;100.00;98196.78;5035104;28;20035;-57
2023/02/01 03:37:06;;;;;;;132.95;11.38;;;;;;;7.16;100.00;98205.72;5033772;28;20395;-57
2023/02/01 03:39:41;;;;;;;189.05;15.27;;;;;;;7.82;100.00;98195.34;5013395;28;20037;-55
2023/02/01 03:42:15;;;;;;;97.25;6.13;;;;;;;7.46;100.00;98194.03;5036414;28;20124;-60
2023/02/01 03:44:45;;;;;;;166.45;12.88;;;;;;;6.89;100.00;98192.44;5037222;28;20571;-56
2023/02/01 03:47:16;;;;;;;131.20;11.93;;;;;;;7.48;100.00;98197.53;5035922;28;20060;-57
2023/02/01 03:49:46;;;;;;;239.98;14.55;;;;;;;7.43;100.00;98201.78;5034572;28;20039;-56
2023/02/01 03:52:18;;;;;;;109.97;8.25;;;;;;;8.29;100.00;98190.63;5036554;28;20037;-56
2023/02/01 03:54:44;;;;;;;163.77;13.40;;;;;;;7.82;100.00;98200.50;5036811;28;20617;-58
2023/02/01 03:57:14;;;;;;;154.18;11.68;;;;;;;7.25;100.00;98179.13;5036193;28;20620;-56
2023/02/01 03:59:44;;;;;;;167.60;11.27;;;;;;;7.25;100.00;98185.16;5036394;28;20032;-58
2023/02/01 04:02:11;;;;;;;129.13;9.68;;;;;;;7.35;100.00;98185.28;5034728;28;20068;-56
2023/02/01 04:04:37;;;;;;;133.50;9.82;;;;;;;7.19;100.00;98174.72;5034096;28;20029;-56
2023/02/01 04:07:03;;;;;;;146.30;8.35;;;;;;;7.35;100.00;98168.03;5035948;28;20068;-57
2023/02/01 04:09:28;;;;;;;131.75;9.32;;;;;;;7.41;100.00;98168.09;5034730;28;20124;-57
2023/02/01 04:11:54;;;;;;;126.80;9.02;;;;;;;8.17;100.00;98169.78;5035176;28;20040;-56
2023/02/01 04:14:19;;;;;;;158.00;13.27;;;;;;;8.31;100.00;98164.69;5034336;28;20059;-55
2023/02/01 04:16:44;;;;;;;132.32;11.05;;;;;;;7.93;100.00;98154.00;5034403;28;20672;-55
2023/02/01 04:19:10;;;;;;;145.55;9.65;;;;;;;7.29;100.00;98157.59;5035829;28;20763;-55
2023/02/01 04:21:35;;;;;;;144.00;10.85;;;;;;;7.81;100.00;98159.94;5034738;28;20053;-57
2023/02/01 04:24:00;;;;;;;134.38;10.40;;;;;;;7.84;100.00;98153.91;5035059;28;20025;-57
2023/02/01 04:26:26;;;;;;;166.90;13.93;;;;;;;8.63;100.00;98156.34;5032685;28;20544;-56
2023/02/01 04:28:52;;;;;;;112.22;7.88;;;;;;;7.65;100.00;98158.88;5036925;28;20112;-55
2023/02/01 04:31:25;;;;;;;117.53;9.35;;;;;;;8.61;100.00;98147.69;5033347;28;20199;-58
2023/02/01 04:33:52;;;;;;;139.38;12.00;;;;;;;9.87;100.00;98152.56;5034904;28;20116;-56
2023/02/01 04:36:19;;;;;;;151.07;13.00;;;;;;;8.80;100.00;98156.44;5035815;28;20029;-55
2023/02/01 04:38:45;;;;;;;150.55;10.95;;;;;;;10.52;100.00;98139.69;5033530;28;20025;-57
2023/02/01 04:41:10;;;;;;;129.25;12.20;;;;;;;9.43;100.00;98149.84;5035188;28;20116;-57
2023/02/01 04:43:35;;;;;;;138.35;7.97;;;;;;;8.35;100.00;98161.28;5035776;28;20593;-55
2023/02/01 04:46:01;;;;;;;154.52;12.43;;;;;;;9.84;100.00;98162.97;5034657;28;20414;-54
2023/02/01 04:48:27;;;;;;;124.65;11.20;;;;;;;9.15;100.00;98160.13;5035855;28;20037;-55
2023/02/01 04:50:53;;;;;;;175.98;16.20;;;;;;;8.09;100.00;98151.53;5034169;28;20040;-53
2023/02/01 04:53:18;;;;;;;116.60;9.15;;;;;;;8.51;100.00;98164.00;5034902;28;20040;-57
2023/02/01 04:55:44;;;;;;;133.43;13.80;;;;;;;8.08;100.00;98152.41;5018906;28;20037;-55
2023/02/01 04:58:10;;;;;;;143.80;10.93;;;;;;;8.13;100.00;98166.25;5035107;28;20032;-57
2023/02/01 05:00:36;;;;;;;113.63;9.07;;;;;;;9.30;100.00;98142.88;5033756;28;20037;-56
2023/02/01 05:03:02;;;;;;;166.40;13.90;;;;;;;8.58;100.00;98152.84;5014377;28;20040;-56
2023/02/01 05:05:28;;;;;;;134.57;11.13;;;;;;;8.68;100.00;98148.59;5032016;28;20045;-57
2023/02/01 05:07:53;;;;;;;109.93;10.57;;;;;;;7.72;100.00;98153.78;5034545;28;20656;-57
2023/02/01 05:10:19;;;;;;;150.20;12.85;;;;;;;8.78;100.00;98150.41;5034884;28;20025;-56
2023/02/01 05:15:29;;;;;;;145.35;11.90;;;;;;;8.58;100.00;98147.69;5035788;28;20052;-55
2023/02/01 05:17:55;;;;;;;140.75;13.98;;;;;;;8.49;100.00;98142.41;5036406;28;20024;-55
2023/02/01 05:20:20;;;;;;;144.85;11.30;;;;;;;7.84;100.00;98142.69;5034037;28;20491;-58
2023/02/01 05:22:45;;;;;;;134.73;12.85;;;;;;;8.64;100.00;98137.34;5034855;28;20158;-55
2023/02/01 05:25:11;;;;;;;135.10;10.98;;;;;;;8.60;100.00;98138.16;5034106;28;20029;-56
2023/02/01 05:27:36;;;;;;;140.40;10.55;;;;;;;9.41;100.00;98136.00;5034366;28;20037;-55
2023/02/01 05:30:04;;;;;;;123.53;11.70;;;;;;;8.56;100.00;98144.19;5036640;28;20123;-55
2023/02/01 05:32:29;;;;;;;152.27;10.98;;;;;;;9.35;100.00;98147.22;5035299;28;20057;-57
2023/02/01 05:34:55;;;;;;;129.10;11.25;;;;;;;8.69;100.00;98158.13;5033025;28;20033;-58
2023/02/01 05:37:20;;;;;;;113.05;8.10;;;;;;;10.29;100.00;98150.03;5034948;28;20039;-55
2023/02/01 05:39:46;;;;;;;139.13;10.23;;;;;;;10.33;100.00;98145.69;5033752;28;20231;-57
2023/02/01 05:42:11;;;;;;;137.73;11.98;;;;;;;10.19;100.00;98159.56;5034730;28;20047;-58
2023/02/01 05:44:36;;;;;;;130.68;8.95;;;;;;;9.67;100.00;98163.78;5038846;28;20048;-56
2023/02/01 05:47:02;;;;;;;110.15;6.93;;;;;;;9.40;100.00;98160.25;5025108;28;20196;-56
2023/02/01 05:49:27;;;;;;;138.75;10.73;;;;;;;9.39;100.00;98166.28;5024355;28;20159;-55
2023/02/01 05:51:52;;;;;;;111.70;7.80;;;;;;;9.90;100.00;98149.97;5033290;28;20184;-56
2023/02/01 05:54:18;;;;;;;134.30;7.03;;;;;;;9.57;100.00;98162.03;5037913;28;20040;-57
2023/02/01 05:56:43;;;;;;;110.55;8.30;;;;;;;9.58;100.00;98163.75;5038366;28;20037;-57
2023/02/01 05:59:09;;;;;;;148.43;6.68;;;;;;;9.12;100.00;98144.53;5038115;28;20036;-56
2023/02/01 06:01:34;;;;;;;117.90;6.63;;;;;;;9.10;100.00;98156.63;5038389;28;20521;-56
2023/02/01 06:04:00;;;;;;;132.13;8.57;;;;;;;8.07;100.00;98142.91;5015209;28;21003;-56
2023/02/01 06:06:25;;;;;;;133.55;8.18;;;;;;;8.12;100.00;98149.00;5038123;28;20124;-57
2023/02/01 06:08:50;;;;;;;120.82;8.48;;;;;;;7.98;100.00;98135.06;5038155;28;20032;-56
2023/02/01 06:11:16;;;;;;;140.05;9.65;;;;;;;8.53;100.00;98142.44;5037859;28;20047;-56
2023/02/01 06:13:41;;;;;;;152.15;10.30;;;;;;;8.98;100.00;98134.94;5039153;28;20080;-56
2023/02/01 06:16:07;;;;;;;134.25;8.38;;;;;;;8.94;100.00;98135.78;5037949;28;20044;-55
2023/02/01 06:18:34;;;;;;;131.40;6.90;;;;;;;9.22;100.00;98132.47;5036214;28;20128;-56
2023/02/01 06:21:00;;;;;;;113.45;7.53;;;;;;;9.32;100.00;98123.00;5037851;28;20151;-55
2023/02/01 06:23:27;;;;;;;149.57;8.02;;;;;;;8.63;100.00;98130.41;5038286;28;20032;-57
2023/02/01 06:25:59;;;;;;;112.30;7.80;;;;;;;8.97;100.00;98128.03;5038671;28;20107;-57
2023/02/01 06:28:24;;;;;;;101.13;6.32;;;;;;;8.82;100.00;98130.53;5040104;28;20021;-55
2023/02/01 06:30:50;;;;;;;126.68;6.78;;;;;;;7.65;100.00;98132.13;5036257;28;20457;-56
2023/02/01 06:33:15;;;;;;;110.22;6.38;;;;;;;8.90;100.00;98134.03;5037626;28;20017;-55
2023/02/01 06:35:43;;;;;;;169.77;9.15;;;;;;;8.21;100.00;98141.28;5036347;28;20501;-55
2023/02/01 06:38:12;;;;;;;115.93;6.03;;;;;;;8.00;100.00;98138.50;5036327;28;20021;-55
2023/02/01 06:40:38;;;;;;;114.80;7.15;;;;;;;8.99;100.00;98143.59;5036802;28;20041;-56
2023/02/01 06:43:04;;;;;;;136.57;7.75;;;;;;;8.76;100.00;98148.66;5038635;28;20040;-56
2023/02/01 06:45:29;;;;;;;120.25;7.30;;;;;;;8.65;100.00;98140.81;5037408;28;20037;-55
2023/02/01 06:47:55;;;;;;;144.55;7.88;;;;;;;8.80;100.00;98137.44;5038854;28;20667;-54
2023/02/01 06:50:20;;;;;;;114.72;7.18;;;;;;;7.86;100.00;98140.97;5036734;28;20108;-55
2023/02/01 06:52:46;;;;;;;125.18;6.65;;;;;;;7.57;100.00;98131.19;5038316;28;20596;-53
2023/02/01 06:55:11;;;;;;;150.13;7.75;;;;;;;6.71;100.00;98135.25;5037777;28;20024;-53
2023/02/01 06:57:37;;;;;;;125.32;6.85;;;;;;;7.87;100.00;98129.78;5037201;28;20532;-53
2023/02/01 07:00:04;;;;;;;123.15;8.02;;;;;;;8.19;100.00;98134.38;5037253;28;20909;-53
2023/02/01 07:02:29;;;;;;;124.43;8.07;;;;;;;7.27;100.00;98131.72;5036203;28;20037;-53
2023/02/01 07:04:55;;;;;;;121.25;8.25;;;;;;;8.19;100.00;98143.03;5036416;28;20037;-53
2023/02/01 07:07:22;;;;;;;153.50;8.40;;;;;;;7.75;100.00;98146.03;5036910;28;20038;-57
2023/02/01 07:09:50;;;;;;;158.48;8.80;;;;;;;7.84;100.00;98156.50;5036142;28;20035;-53
2023/02/01 07:12:15;;;;;;;133.57;8.00;;;;;;;7.38;100.00;98149.94;5036209;28;20033;-53
2023/02/01 07:14:41;;;;;;;131.15;9.27;;;;;;;7.16;100.00;98149.69;5035806;28;20043;-54
2023/02/01 07:17:06;;;;;;;108.30;7.93;;;;;;;7.64;100.00;98157.16;5035843;28;20033;-54
2023/02/01 07:19:32;;;;;;;152.93;8.82;;;;;;;7.98;100.00;98150.59;5036376;28;20048;-54
2023/02/01 07:21:57;;;;;;;121.32;8.35;;;;;;;7.06;100.00;98152.13;5034188;28;20072;-56
2023/02/01 07:24:23;;;;;;;119.72;7.90;;;;;;;6.93;100.00;98153.66;5037571;28;20120;-57
2023/02/01 07:26:50;;;;;;;121.47;7.13;;;;;;;6.31;100.00;98157.06;5037932;28;20033;-56
2023/02/01 07:29:16;;;;;;;118.35;7.95;;;;;;;6.74;100.00;98158.56;5038038;28;20534;-53
2023/02/01 07:31:42;;;;;;;140.07;6.60;;;;;;;7.24;100.00;98160.13;5017812;28;20041;-53
2023/02/01 07:34:07;;;;;;;132.57;7.88;;;;;;;6.80;100.00;98158.69;5036362;28;20034;-55
2023/02/01 07:36:34;;;;;;;100.97;6.40;;;;;;;7.80;100.00;98158.19;5035846;28;20047;-54
2023/02/01 07:38:59;;;;;;;147.90;8.23;;;;;;;7.63;100.00;98165.78;5035226;28;20655;-55
2023/02/01 07:41:25;;;;;;;146.85;8.57;;;;;;;7.12;100.00;98159.97;5033518;28;20056;-56
2023/02/01 07:43:54;;;;;;;112.78;8.65;;;;;;;7.73;100.00;98152.94;5036696;28;20168;-54
2023/02/01 07:46:20;;;;;;;130.00;8.85;;;;;;;7.75;100.00;98153.78;5033934;28;20040;-55
2023/02/01 07:48:45;;;;;;;125.35;6.75;;;;;;;7.48;100.00;98161.28;5036120;28;20122;-55
2023/02/01 07:51:13;;;;;;;171.68;8.82;;;;;;;7.63;100.00;98157.13;5033742;28;20037;-57
2023/02/01 07:53:39;;;;;;;138.48;7.82;;;;;;;8.11;100.00;98152.44;5037748;28;20025;-54
2023/02/01 07:56:11;;;;;;;112.03;7.45;;;;;;;8.09;100.00;98148.94;5034862;28;20036;-55
2023/02/01 07:58:36;;;;;;;169.57;9.52;;;;;;;7.95;100.00;98146.25;5034267;28;20013;-57
2023/02/01 08:01:19;;;;;;;116.88;8.80;;;;;;;8.62;100.00;98148.56;5033684;28;20481;-56
2023/02/01 08:03:50;;;;;;;127.38;7.47;;;;;;;8.74;100.00;98148.63;5036628;28;20082;-57
2023/02/01 08:06:16;;;;;;;112.97;6.75;;;;;;;7.78;100.00;98144.34;5034997;28;20033;-55
2023/02/01 08:08:42;;;;;;;122.65;7.10;;;;;;;7.88;100.00;98129.78;5035839;28;20588;-55
2023/02/01 08:11:07;;;;;;;112.57;5.90;;;;;;;8.52;100.00;98137.22;5019149;28;20045;-55
2023/02/01 08:13:34;;;;;;;144.02;8.88;;;;;;;7.80;100.00;98154.75;5034290;28;20026;-54
2023/02/01 08:16:02;;;;;;;135.93;8.35;;;;;;;8.32;100.00;98151.75;5033711;28;20120;-54
2023/02/01 08:18:28;;;;;;;106.13;6.82;;;;;;;7.80;100.00;98153.00;5035397;28;20250;-57
2023/02/01 08:20:54;;;;;;;122.68;8.85;;;;;;;9.15;100.00;98152.34;5035862;28;20866;-56
2023/02/01 08:23:20;;;;;;;114.45;8.43;;;;;;;8.35;100.00;98150.91;5036854;28;20131;-56
2023/02/01 08:25:46;;;;;;;144.82;9.57;;;;;;;7.71;100.00;98144.28;5034896;28;20037;-54
2023/02/01 08:28:12;;;;;;;131.10;8.77;;;;;;;7.99;100.00;98140.25;5035747;28;20563;-54
2023/02/01 08:30:38;;;;;;;133.55;7.35;;;;;;;7.87;100.00;98158.25;5034642;28;20103;-54
2023/02/01 08:33:05;;;;;;;134.02;7.30;;;;;;;8.83;100.00;98153.88;5034847;28;20435;-54
2023/02/01 08:35:31;;;;;;;108.32;6.80;;;;;;;8.21;100.00;98159.44;5035146;28;20037;-55
2023/02/01 08:37:56;;;;;;;143.15;9.10;;;;;;;7.60;100.00;98170.03;5034618;28;20021;-53
2023/02/01 08:40:21;;;;;;;150.45;8.98;;;;;;;8.92;100.00;98179.03;5034698;28;20024;-54
2023/02/01 08:42:53;;;;;;;127.45;8.05;;;;;;;9.52;100.00;98162.00;5035127;28;20123;-57
2023/02/01 08:45:28;;;;;;;135.45;8.48;;;;;;;8.93;100.00;98172.97;5031685;28;20430;-53
2023/02/01 08:47:54;;;;;;;136.77;8.90;;;;;;;8.21;100.00;98185.34;5033392;28;20059;-56
2023/02/01 08:50:20;;;;;;;161.40;7.15;;;;;;;9.81;100.00;98166.44;5034146;28;20028;-54
2023/02/01 08:52:46;;;;;;;117.88;6.18;;;;;;;9.84;100.00;98186.34;5035526;28;20140;-54
2023/02/01 08:55:12;;;;;;;116.68;8.02;;;;;;;9.53;100.00;98186.25;5033328;28;20032;-55
2023/02/01 08:57:38;;;;;;;121.75;7.72;;;;;;;9.69;100.00;98176.78;5034465;28;20136;-56
2023/02/01 09:00:06;;;;;;;103.38;5.47;;;;;;;9.41;100.00;98177.53;5035290;28;20645;-55
2023/02/01 09:02:31;;;;;;;162.85;9.35;;;;;;;10.54;100.00;98171.72;5032793;28;20916;-57
2023/02/01 09:04:57;;;;;;;114.68;7.60;;;;;;;11.65;100.00;98170.59;5034504;28;20733;-56
2023/02/01 09:07:22;;;;;;;134.93;8.05;;;;;;;10.93;100.00;98173.44;5033340;28;20039;-56
2023/02/01 09:09:48;;;;;;;167.60;8.10;;;;;;;10.01;100.00;98178.59;5034665;28;20025;-54
2023/02/01 09:12:13;;;;;;;106.15;5.75;;;;;;;9.96;100.00;98180.31;5035211;28;20041;-54
2023/02/01 09:14:38;;;;;;;129.98;8.02;;;;;;;12.76;100.00;98178.53;5034581;28;20473;-56
2023/02/01 09:17:05;;;;;;;109.60;7.53;;;;;;;12.31;100.00;98171.97;5034384;28;20049;-55
2023/02/01 09:19:30;;;;;;;149.52;8.10;;;;;;;11.66;100.00;98172.34;5038967;28;20025;-57
2023/02/01 09:21:56;;;;;;;170.80;9.35;;;;;;;11.01;100.00;98176.88;5036873;28;20106;-55
2023/02/01 09:24:21;;;;;;;100.68;7.95;;;;;;;10.99;100.00;98186.41;5038773;28;20021;-56
2023/02/01 09:26:47;;;;;;;131.38;7.55;;;;;;;11.11;100.00;98203.78;5038067;28;20275;-55
2023/02/01 09:29:12;;;;;;;128.70;7.20;;;;;;;10.36;100.00;98213.31;5037809;28;20060;-57
2023/02/01 09:31:39;;;;;;;108.68;5.55;;;;;;;10.88;100.00;98207.25;5038120;28;20072;-56
2023/02/01 09:34:05;;;;;;;149.43;7.72;;;;;;;11.65;100.00;98204.47;5038174;28;20037;-56
2023/02/01 09:36:30;;;;;;;136.98;9.38;;;;;;;11.12;100.00;98209.81;5036996;28;20060;-55
2023/02/01 09:38:56;;;;;;;114.35;6.55;;;;;;;11.17;100.00;98221.97;5037522;28;20107;-55
2023/02/01 09:41:40;;;;;;;151.85;8.65;;;;;;;11.06;100.00;98226.31;5036191;28;20497;-54
2023/02/01 09:44:16;;;;;;;107.25;7.07;;;;;;;11.66;100.00;98233.09;5038801;28;20083;-54
2023/02/01 09:46:41;;;;;;;131.65;8.48;;;;;;;10.16;100.00;98250.53;5035850;28;20091;-57
2023/02/01 09:49:18;;;;;;;128.18;7.43;;;;;;;9.94;100.00;98234.88;5038324;28;20029;-54
2023/02/01 09:51:48;;;;;;;146.77;6.75;;;;;;;9.65;100.00;98251.19;5037719;28;20037;-56
2023/02/01 09:54:17;;;;;;;111.47;7.07;;;;;;;9.55;100.00;98249.44;5037102;28;20017;-55
2023/02/01 09:56:58;;;;;;;151.35;6.85;;;;;;;10.08;100.00;98249.63;5038246;28;20064;-56
2023/02/01 09:59:38;;;;;;;133.00;6.95;;;;;;;9.97;100.00;98250.47;5038031;28;20577;-57
2023/02/01 10:02:10;;;;;;;112.88;6.70;;;;;;;11.36;100.00;98239.28;5038697;28;20037;-55
2023/02/01 10:04:35;;;;;;;110.13;5.32;;;;;;;9.85;100.00;98266.03;5039148;28;20028;-55
2023/02/01 10:07:16;;;;;;;122.35;6.45;;;;;;;10.98;100.00;98254.97;5037832;28;20686;-55
2023/02/01 10:09:59;;;;;;;188.05;8.18;;;;;;;12.16;100.00;98258.09;5036534;28;20028;-57
2023/02/01 10:12:46;;;;;;;102.35;4.80;;;;;;;11.92;100.00;98250.38;5038546;28;20033;-54
2023/02/01 10:15:42;;;;;;;103.30;5.22;;;;;;;12.99;100.00;98254.03;5035529;28;20032;-54
2023/02/01 10:18:26;;;;;;;106.47;5.32;;;;;;;12.48;100.00;98252.69;5021702;28;20032;-56
2023/02/01 10:21:38;;;;;;;140.63;6.82;;;;;;;11.98;100.00;98259.91;5036856;28;20497;-57
2023/02/01 10:24:42;;;;;;;140.93;6.80;;;;;;;12.02;100.00;98252.97;4955832;28;20035;-56
2023/02/01 10:27:21;;;;;;;114.97;6.45;;;;;;;11.44;100.00;98260.97;5036776;28;20698;-55
2023/02/01 10:30:00;;;;;;;153.80;7.20;;;;;;;10.84;100.00;98249.75;5037358;28;20033;-56
2023/02/01 10:32:34;;;;;;;141.30;7.35;;;;;;;11.50;100.00;98245.31;5037238;28;20053;-56
2023/02/01 10:35:08;;;;;;;115.65;5.38;;;;;;;10.23;100.00;98257.47;5037949;28;20025;-58
2023/02/01 10:37:34;;;;;;;134.00;6.53;;;;;;;11.18;100.00;98244.53;5037674;28;20049;-56
2023/02/01 10:40:10;;;;;;;116.97;6.07;;;;;;;9.27;100.00;98257.09;5018930;28;20272;-57
2023/02/01 10:42:35;;;;;;;127.45;6.78;;;;;;;9.07;100.00;98248.31;5036700;28;20037;-54
2023/02/01 10:45:03;;;;;;;127.93;7.53;;;;;;;8.59;100.00;98250.53;5037218;28;20033;-56
2023/02/01 10:47:28;;;;;;;171.73;8.80;;;;;;;7.45;100.00;98266.50;5036392;28;20171;-60
2023/02/01 10:50:15;;;;;;;131.02;7.38;;;;;;;7.52;100.00;98261.41;5034940;28;20060;-54
2023/02/01 10:52:53;;;;;;;144.20;8.48;;;;;;;7.36;100.00;98255.19;5040065;28;20098;-55
2023/02/01 10:55:38;;;;;;;116.57;7.60;;;;;;;6.80;100.00;98254.34;5031576;28;20024;-55
2023/02/01 10:58:08;;;;;;;138.00;8.60;;;;;;;6.41;100.00;98245.94;5037124;28;20035;-54
2023/02/01 11:01:02;;;;;;;157.00;6.88;;;;;;;6.27;100.00;98263.75;5034538;28;20146;-56
2023/02/01 11:03:41;;;;;;;137.30;6.95;;;;;;;6.67;100.00;98252.38;5031374;28;20631;-55
2023/02/01 11:06:23;;;;;;;99.60;7.43;;;;;;;7.79;100.00;98234.13;5036633;28;20041;-57
2023/02/01 11:09:01;;;;;;;159.45;8.05;;;;;;;8.37;100.00;98232.16;5036217;28;20025;-53
2023/02/01 11:11:27;;;;;;;129.55;7.03;;;;;;;8.38;100.00;98222.66;5037485;28;20080;-56
2023/02/01 11:14:15;;;;;;;143.55;6.72;;;;;;;8.63;100.00;98228.06;5038079;28;20021;-55
2023/02/01 11:16:40;;;;;;;113.97;7.60;;;;;;;9.40;100.00;98232.06;5035738;28;20053;-53
2023/02/01 11:19:06;;;;;;;136.80;9.23;;;;;;;9.90;100.00;98220.13;5035574;28;20101;-56
2023/02/01 11:21:35;;;;;;;135.68;9.40;;;;;;;9.60;100.00;98208.78;5035554;28;20045;-55
2023/02/01 11:24:06;;;;;;;176.20;9.40;;;;;;;10.46;100.00;98201.22;5035831;28;20082;-53
2023/02/01 11:26:32;;;;;;;125.47;7.95;;;;;;;9.73;100.00;98200.16;5033713;28;20040;-54
2023/02/01 11:29:05;;;;;;;139.40;9.23;;;;;;;10.79;100.00;98197.75;5038252;28;20035;-53
2023/02/01 11:31:32;;;;;;;128.90;10.20;;;;;;;10.93;100.00;98187.31;5036060;28;20057;-54
2023/02/01 11:34:04;;;;;;;127.50;8.02;;;;;;;10.20;100.00;98183.84;5035377;28;20042;-56
2023/02/01 11:36:33;;;;;;;123.25;6.82;;;;;;;10.92;100.00;98187.31;5035818;28;20052;-55
2023/02/01 11:39:14;;;;;;;126.72;8.63;;;;;;;10.69;100.00;98180.38;5037525;28;20698;-54
2023/02/01 11:42:01;;;;;;;123.43;7.75;;;;;;;10.65;100.00;98171.72;5034457;28;20073;-56
2023/02/01 11:44:41;;;;;;;169.85;9.38;;;;;;;11.12;100.00;98181.19;5035690;28;20071;-56
2023/02/01 11:47:26;;;;;;;104.93;6.82;;;;;;;10.81;100.00;98169.97;5035764;28;20052;-56
2023/02/01 11:49:57;;;;;;;139.32;7.15;;;;;;;10.52;100.00;98170.00;5034551;28;20021;-55